Time;durP1;ratioP1;P1;durP2;ratioP2;P2;SDS_P1;SDS_P2;PMS_P1;PMS_P2;Temp;Humidity;BMP_temperature;BMP_pressure;BME280_temperature;BME280_humidity;BME280_pressure;Samples;Min_cycle;Max_cycle;Signal;HPM_P1;HPM_P2
2023/04/12 00:02:03;;;;;;;2.28;1.30;;;;;;;16.93;44.95;99612.84;5093298;28;20486;-76
2023/04/12 00:04:33;;;;;;;2.10;1.20;;;;;;;16.87;45.02;99603.50;5093136;28;20481;-77
2023/04/12 00:07:01;;;;;;;1.98;1.10;;;;;;;16.87;45.39;99622.34;5093617;28;20044;-77
2023/04/12 00:09:31;;;;;;;1.88;0.90;;;;;;;16.86;45.23;99614.44;5093063;28;20511;-76
2023/04/12 00:12:00;;;;;;;1.67;1.00;;;;;;;16.83;45.30;99612.88;5093255;28;20054;-77
2023/04/12 00:14:29;;;;;;;2.88;1.20;;;;;;;16.82;45.31;99610.34;5093072;28;20043;-77
2023/04/12 00:16:57;;;;;;;1.88;1.10;;;;;;;16.78;45.23;99614.31;5075354;28;20054;-78
2023/04/12 00:19:26;;;;;;;1.80;1.10;;;;;;;16.77;45.22;99610.78;5093543;28;20048;-77
2023/04/12 00:21:56;;;;;;;1.55;1.05;;;;;;;16.74;45.31;99610.22;5093213;28;20109;-78
2023/04/12 00:24:25;;;;;;;2.35;1.17;;;;;;;16.73;45.33;99616.63;5093373;28;20047;-77
2023/04/12 00:26:55;;;;;;;2.15;1.08;;;;;;;16.70;45.18;99612.38;5093414;28;20401;-77
2023/04/12 00:29:23;;;;;;;2.75;1.05;;;;;;;16.68;45.37;99619.72;5092817;28;20051;-77
2023/04/12 00:31:51;;;;;;;2.05;1.08;;;;;;;16.67;45.17;99612.63;5092891;28;20780;-77
2023/04/12 00:34:19;;;;;;;1.77;0.93;;;;;;;16.66;45.31;99615.47;5093083;28;20054;-78
2023/04/12 00:36:47;;;;;;;2.08;1.00;;;;;;;16.64;45.26;99614.75;5092895;28;20485;-77
2023/04/12 00:39:17;;;;;;;2.30;1.17;;;;;;;16.59;45.20;99620.56;5093037;28;20097;-75
2023/04/12 00:41:45;;;;;;;2.67;1.13;;;;;;;16.58;45.29;99614.34;5092600;28;20044;-77
2023/04/12 00:44:13;;;;;;;1.90;1.00;;;;;;;16.55;45.47;99617.34;5092850;28;20504;-77
2023/04/12 00:46:41;;;;;;;2.10;1.25;;;;;;;16.55;45.38;99625.41;5092692;28;20044;-78
2023/04/12 00:49:11;;;;;;;1.88;1.10;;;;;;;16.52;45.21;99624.88;5092789;28;20100;-77
2023/04/12 00:51:40;;;;;;;2.50;1.20;;;;;;;16.51;45.17;99610.56;5093027;28;20040;-78
2023/04/12 00:54:08;;;;;;;1.23;0.95;;;;;;;16.48;45.13;99616.22;5092568;28;20521;-78
2023/04/12 00:56:39;;;;;;;1.00;0.82;;;;;;;16.46;45.21;99604.75;5092624;28;20083;-78
2023/04/12 00:59:08;;;;;;;1.67;1.05;;;;;;;16.42;45.30;99602.50;5092701;28;20070;-78
2023/04/12 01:01:37;;;;;;;2.10;1.20;;;;;;;16.42;45.17;99600.66;5092345;28;20478;-76
2023/04/12 01:04:05;;;;;;;1.80;1.00;;;;;;;16.40;45.09;99599.94;5092706;28;20083;-76
2023/04/12 01:06:43;;;;;;;1.73;1.05;;;;;;;16.36;45.12;99593.16;5092659;28;20044;-75
2023/04/12 01:09:20;;;;;;;1.73;1.13;;;;;;;16.36;45.17;99601.22;5092532;28;20091;-77
2023/04/12 01:11:58;;;;;;;1.50;1.20;;;;;;;16.34;45.11;99600.53;5092296;28;20058;-78
2023/04/12 01:14:35;;;;;;;2.20;1.23;;;;;;;16.31;45.24;99598.13;5092782;28;20040;-77
2023/04/12 01:17:07;;;;;;;2.67;1.10;;;;;;;16.28;45.24;99606.47;5092494;28;20443;-78
2023/04/12 01:19:52;;;;;;;2.92;1.30;;;;;;;16.26;45.31;99598.56;5092543;28;20040;-77
2023/04/12 01:22:37;;;;;;;2.00;1.20;;;;;;;16.24;45.22;99602.41;5092294;28;20067;-78
2023/04/12 01:25:25;;;;;;;1.77;1.13;;;;;;;16.24;45.25;99599.69;5092334;28;20044;-78
2023/04/12 01:27:57;;;;;;;2.08;1.33;;;;;;;16.20;45.24;99595.59;5092534;28;20094;-79
2023/04/12 01:30:27;;;;;;;2.03;0.88;;;;;;;16.17;45.24;99598.56;5092203;28;20052;-77
2023/04/12 01:32:59;;;;;;;2.58;1.13;;;;;;;16.14;45.41;99591.66;5092462;28;20135;-78
2023/04/12 01:35:30;;;;;;;1.90;1.20;;;;;;;16.16;45.27;99597.72;5092454;28;20048;-77
2023/04/12 01:38:01;;;;;;;2.50;1.10;;;;;;;16.14;45.21;99596.19;5092249;28;20048;-78
2023/04/12 01:40:31;;;;;;;2.35;1.20;;;;;;;16.11;45.31;99589.22;5094499;28;20040;-77
2023/04/12 01:43:08;;;;;;;2.75;1.25;;;;;;;16.11;45.35;99593.75;5096182;28;20047;-78
2023/04/12 01:45:36;;;;;;;2.03;1.30;;;;;;;16.07;45.34;99581.59;5096392;28;20044;-77
2023/04/12 01:48:06;;;;;;;1.63;1.08;;;;;;;16.03;45.39;99576.50;5096303;28;20044;-77
2023/04/12 01:50:42;;;;;;;1.75;1.00;;;;;;;16.04;45.39;99582.75;5096086;28;20530;-77
2023/04/12 01:53:18;;;;;;;1.80;1.10;;;;;;;16.02;45.33;99582.03;5095954;28;20489;-77
2023/04/12 01:55:47;;;;;;;2.08;1.27;;;;;;;15.99;45.49;99575.09;5095754;28;20051;-77
2023/04/12 01:58:20;;;;;;;2.22;1.08;;;;;;;15.98;45.31;99577.91;5096050;28;20101;-76
2023/04/12 02:00:50;;;;;;;2.42;1.20;;;;;;;15.99;45.28;99576.91;5095659;28;20048;-76
2023/04/12 02:03:20;;;;;;;1.80;1.08;;;;;;;15.94;45.31;99555.84;5095885;28;20052;-78
2023/04/12 02:05:50;;;;;;;4.07;1.27;;;;;;;15.94;45.34;99574.69;5095672;28;20516;-76
2023/04/12 02:08:18;;;;;;;2.33;1.35;;;;;;;15.92;45.32;99568.59;5095813;28;20135;-77
2023/04/12 02:10:46;;;;;;;3.03;1.38;;;;;;;15.92;45.33;99583.84;5095684;28;20052;-78
2023/04/12 02:13:16;;;;;;;2.55;1.25;;;;;;;15.90;45.36;99592.06;5095896;28;20044;-78
2023/04/12 02:15:46;;;;;;;2.20;1.10;;;;;;;15.90;45.29;99597.44;5095861;28;20073;-76
2023/04/12 02:18:15;;;;;;;2.42;1.30;;;;;;;15.87;45.36;99581.59;5095432;28;20164;-76
2023/04/12 02:20:43;;;;;;;1.50;1.10;;;;;;;15.86;45.31;99582.59;5095468;28;20571;-78
2023/04/12 02:23:12;;;;;;;1.92;1.13;;;;;;;15.82;45.35;99575.78;5095468;28;20051;-77
2023/04/12 02:25:40;;;;;;;1.45;1.13;;;;;;;15.83;45.45;99580.22;5095624;28;20589;-79
2023/04/12 02:28:08;;;;;;;2.00;1.10;;;;;;;15.83;45.42;99585.59;5095129;28;20097;-77
2023/04/12 02:30:37;;;;;;;1.90;1.30;;;;;;;15.82;45.42;99596.47;5095091;28;20075;-77
2023/04/12 02:33:08;;;;;;;1.35;1.00;;;;;;;15.81;45.47;99582.16;5095174;28;20094;-77
2023/04/12 02:35:36;;;;;;;1.90;1.05;;;;;;;15.79;45.45;99577.94;5095067;28;20040;-78
2023/04/12 02:38:07;;;;;;;3.05;1.13;;;;;;;15.79;45.51;99586.00;5095279;28;20051;-76
2023/04/12 02:40:39;;;;;;;2.38;1.40;;;;;;;15.77;45.53;99588.84;5095348;28;20139;-78
2023/04/12 02:43:08;;;;;;;2.35;1.00;;;;;;;15.76;45.45;99584.44;5095442;28;20052;-77
2023/04/12 02:45:36;;;;;;;2.72;1.27;;;;;;;15.74;45.46;99575.69;5095105;28;20097;-77
2023/04/12 02:48:05;;;;;;;2.63;1.20;;;;;;;15.73;45.42;99579.38;5094616;28;20112;-77
2023/04/12 02:50:36;;;;;;;1.60;1.10;;;;;;;15.70;45.48;99575.09;5094365;28;20063;-76
2023/04/12 02:53:04;;;;;;;2.15;1.08;;;;;;;15.71;45.47;99573.25;5094219;28;20525;-79
2023/04/12 02:55:32;;;;;;;2.40;1.17;;;;;;;15.68;45.56;99565.47;5094781;28;20045;-77
2023/04/12 02:58:01;;;;;;;2.83;1.40;;;;;;;15.67;45.43;99569.16;5095121;28;20074;-77
2023/04/12 03:00:29;;;;;;;1.38;1.00;;;;;;;15.67;45.45;99586.13;5094559;28;20084;-78
2023/04/12 03:02:58;;;;;;;1.63;1.10;;;;;;;15.65;45.34;99581.91;5094579;28;20044;-79
2023/04/12 03:05:29;;;;;;;2.80;1.17;;;;;;;15.62;45.31;99577.63;5095016;28;20490;-79
2023/04/12 03:07:59;;;;;;;2.03;1.20;;;;;;;15.61;45.40;99577.78;5094674;28;20143;-79
2023/04/12 03:10:27;;;;;;;2.33;1.33;;;;;;;15.61;45.30;99583.16;5094430;28;20485;-77
2023/04/12 03:12:56;;;;;;;2.72;1.50;;;;;;;15.59;45.20;99582.41;5094508;28;20048;-78
2023/04/12 03:15:24;;;;;;;1.95;1.20;;;;;;;15.56;45.25;99593.47;5094323;28;20138;-78
2023/04/12 03:17:52;;;;;;;3.17;1.27;;;;;;;15.54;45.34;99590.03;5094465;28;20048;-78
2023/04/12 03:20:23;;;;;;;2.72;1.40;;;;;;;15.54;45.30;99596.28;5094398;28;20516;-78
2023/04/12 03:22:51;;;;;;;2.13;1.27;;;;;;;15.50;45.25;99589.47;5094651;28;20104;-79
2023/04/12 03:25:21;;;;;;;2.72;1.45;;;;;;;15.49;45.20;99593.16;5094053;28;20059;-79
2023/04/12 03:27:49;;;;;;;1.67;1.10;;;;;;;15.50;45.18;99591.31;5093987;28;20048;-77
2023/04/12 03:30:17;;;;;;;1.98;1.20;;;;;;;15.48;45.31;99586.09;5093702;28;20084;-77
2023/04/12 03:32:45;;;;;;;2.05;1.38;;;;;;;15.44;45.18;99580.16;5094000;28;20077;-77
2023/04/12 03:35:13;;;;;;;2.28;1.30;;;;;;;15.42;45.14;99571.34;5094173;28;20404;-78
2023/04/12 03:37:45;;;;;;;1.85;1.30;;;;;;;15.43;45.26;99574.91;5094272;28;20051;-78
2023/04/12 03:40:13;;;;;;;1.98;1.20;;;;;;;15.41;45.32;99574.19;5093874;28;20044;-78
2023/04/12 03:42:46;;;;;;;2.80;1.20;;;;;;;15.39;45.25;99574.34;5094471;28;20052;-78
2023/04/12 03:45:15;;;;;;;1.98;1.35;;;;;;;15.38;45.35;99569.94;5093538;28;20040;-79
2023/04/12 03:47:43;;;;;;;2.92;1.50;;;;;;;15.37;45.34;99567.41;5093996;28;20117;-78
2023/04/12 03:50:12;;;;;;;2.60;1.25;;;;;;;15.31;45.39;99566.13;5093446;28;20089;-78
2023/04/12 03:52:40;;;;;;;2.45;1.40;;;;;;;15.35;45.43;99570.25;5093512;28;20078;-78
2023/04/12 03:55:10;;;;;;;2.08;1.17;;;;;;;15.33;45.37;99580.25;5093912;28;20477;-79
2023/04/12 03:57:39;;;;;;;1.98;1.20;;;;;;;15.32;45.29;99562.44;5093748;28;20095;-79
2023/04/12 04:00:10;;;;;;;1.80;1.25;;;;;;;15.30;45.30;99566.25;5093960;28;20126;-78
2023/04/12 04:02:46;;;;;;;2.00;1.25;;;;;;;15.30;45.37;99561.72;5093251;28;20051;-77
2023/04/12 04:05:14;;;;;;;2.03;1.23;;;;;;;15.28;45.32;99549.44;5093340;28;20074;-79
2023/04/12 04:07:42;;;;;;;2.20;1.30;;;;;;;15.27;45.42;99556.66;5093228;28;20517;-78
2023/04/12 04:10:11;;;;;;;2.50;1.30;;;;;;;15.25;45.36;99564.00;5093363;28;20138;-79
2023/04/12 04:12:39;;;;;;;3.22;1.35;;;;;;;15.27;45.43;99561.16;5092927;28;20048;-76
2023/04/12 04:15:10;;;;;;;2.70;1.48;;;;;;;15.25;45.36;99569.38;5093210;28;20059;-77
2023/04/12 04:17:38;;;;;;;2.20;1.30;;;;;;;15.24;45.43;99570.34;5093312;28;20051;-77
2023/04/12 04:20:11;;;;;;;2.38;1.20;;;;;;;15.23;45.53;99560.56;5093388;28;20091;-77
2023/04/12 04:22:41;;;;;;;2.08;1.27;;;;;;;15.22;45.53;99561.56;5093475;28;20094;-79
2023/04/12 04:25:12;;;;;;;1.95;1.20;;;;;;;15.21;45.62;99562.56;5093103;28;20496;-78
2023/04/12 04:27:43;;;;;;;2.35;1.13;;;;;;;15.19;45.51;99564.53;5092826;28;20048;-77
2023/04/12 04:30:14;;;;;;;2.40;1.30;;;;;;;15.18;45.67;99568.22;5092310;28;20044;-77
2023/04/12 04:32:43;;;;;;;2.15;1.02;;;;;;;15.18;45.37;99562.84;5092648;28;20460;-77
2023/04/12 04:35:14;;;;;;;1.85;1.30;;;;;;;15.20;45.73;99570.75;5092443;28;20489;-75
2023/04/12 04:37:42;;;;;;;1.73;1.20;;;;;;;15.18;45.56;99579.81;5092654;28;20135;-76
2023/04/12 04:40:12;;;;;;;1.50;1.02;;;;;;;15.18;45.63;99573.59;5092667;28;20080;-77
2023/04/12 04:42:41;;;;;;;3.05;1.33;;;;;;;15.17;45.67;99569.22;5092668;28;20472;-76
2023/04/12 04:45:13;;;;;;;1.60;1.20;;;;;;;15.17;45.54;99569.22;5097490;28;20446;-77
2023/04/12 04:47:44;;;;;;;2.20;1.30;;;;;;;15.16;45.67;99563.00;5113194;28;20044;-77
2023/04/12 04:50:12;;;;;;;2.10;1.00;;;;;;;15.16;45.73;99572.88;5100714;28;20082;-77
2023/04/12 04:52:40;;;;;;;1.60;1.15;;;;;;;15.15;45.72;99563.09;5094488;28;20051;-77
2023/04/12 04:55:10;;;;;;;1.90;1.00;;;;;;;15.12;45.86;99563.38;5093067;28;20051;-78
2023/04/12 04:57:38;;;;;;;1.70;1.10;;;;;;;15.15;45.65;99563.09;5094250;28;20048;-78
2023/04/12 05:00:10;;;;;;;2.00;1.08;;;;;;;15.14;46.06;99561.41;5093981;28;20114;-79
2023/04/12 05:02:41;;;;;;;1.75;1.23;;;;;;;15.14;45.75;99572.16;5093590;28;20581;-79
2023/04/12 05:05:12;;;;;;;2.15;1.20;;;;;;;15.14;45.82;99574.84;5093638;28;20048;-77
2023/04/12 05:07:42;;;;;;;1.77;1.00;;;;;;;15.13;45.72;99565.94;5093457;28;20108;-80
2023/04/12 05:10:11;;;;;;;2.42;1.10;;;;;;;15.13;45.81;99565.94;5092858;28;20481;-78
2023/04/12 05:12:39;;;;;;;2.17;1.25;;;;;;;15.12;45.81;99560.69;5092448;28;20101;-78
2023/04/12 05:15:09;;;;;;;2.13;1.17;;;;;;;15.13;45.71;99559.72;5093972;28;20117;-78
2023/04/12 05:17:39;;;;;;;2.22;1.35;;;;;;;15.12;45.72;99556.19;5096218;28;20059;-78
2023/04/12 05:20:10;;;;;;;1.77;0.93;;;;;;;15.12;45.74;99552.66;5113697;28;20054;-78
2023/04/12 05:22:42;;;;;;;2.23;1.47;;;;;;;15.11;45.88;99550.94;5116423;28;20055;-81
2023/04/12 05:25:10;;;;;;;2.45;1.25;;;;;;;15.11;45.82;99550.94;5116690;28;20545;-79
2023/04/12 05:27:38;;;;;;;1.88;1.20;;;;;;;15.11;45.80;99550.94;5115783;28;20686;-79
2023/04/12 05:30:10;;;;;;;1.63;1.00;;;;;;;15.09;45.77;99542.19;5095199;28;20067;-78
2023/04/12 05:32:39;;;;;;;1.48;1.08;;;;;;;15.08;45.89;99541.34;5095856;28;20048;-80
2023/04/12 05:35:08;;;;;;;1.90;1.30;;;;;;;15.10;45.89;99546.56;5095718;28;20074;-80
2023/04/12 05:37:36;;;;;;;1.55;0.95;;;;;;;15.10;45.85;99546.56;5096184;28;20055;-82
2023/04/12 05:40:08;;;;;;;1.65;1.05;;;;;;;15.07;46.03;99545.03;5095786;28;20055;-80
2023/04/12 05:42:37;;;;;;;1.35;0.90;;;;;;;15.08;45.88;99546.72;5095986;28;20467;-80
2023/04/12 05:45:06;;;;;;;2.03;1.25;;;;;;;15.08;45.83;99541.34;5103846;28;20048;-78
2023/04/12 05:47:36;;;;;;;1.92;1.05;;;;;;;15.09;46.00;99548.41;5095389;28;20501;-79
2023/04/12 05:50:05;;;;;;;2.03;1.10;;;;;;;15.07;45.88;99554.91;5095904;28;20077;-78
2023/04/12 05:52:34;;;;;;;1.38;1.00;;;;;;;15.08;45.84;99551.25;5095438;28;20417;-77
2023/04/12 05:55:04;;;;;;;2.00;1.10;;;;;;;15.08;45.83;99568.19;5094778;28;20444;-78
2023/04/12 05:57:33;;;;;;;2.03;1.23;;;;;;;15.07;45.91;99566.50;5095496;28;20465;-77
2023/04/12 06:00:07;;;;;;;1.85;1.10;;;;;;;15.06;45.88;99564.81;5095273;28;20055;-79
2023/04/12 06:02:35;;;;;;;1.42;0.95;;;;;;;15.05;45.99;99567.59;5095524;28;20056;-78
2023/04/12 06:05:05;;;;;;;1.65;1.00;;;;;;;15.07;46.04;99576.41;5103569;28;20062;-78
2023/04/12 06:07:35;;;;;;;1.77;1.00;;;;;;;15.06;45.88;99567.50;5104753;28;20127;-78
2023/04/12 06:10:04;;;;;;;1.70;1.13;;;;;;;15.06;45.96;99583.59;5103900;28;20052;-78
2023/04/12 06:12:33;;;;;;;2.60;1.10;;;;;;;15.07;45.82;99588.00;5105784;28;20143;-77
2023/04/12 06:15:01;;;;;;;1.65;1.17;;;;;;;15.07;46.09;99592.50;5106684;28;20040;-77
2023/04/12 06:17:31;;;;;;;2.08;1.13;;;;;;;15.07;45.86;99587.16;5094414;28;20492;-78
2023/04/12 06:20:02;;;;;;;2.28;1.27;;;;;;;15.04;45.81;99590.06;5103359;28;20054;-78
2023/04/12 06:22:30;;;;;;;2.08;1.40;;;;;;;15.07;45.80;99587.16;5110325;28;20075;-78
2023/04/12 06:24:58;;;;;;;2.10;1.30;;;;;;;15.08;45.75;99591.53;5113505;28;20040;-77
2023/04/12 06:27:26;;;;;;;1.77;1.30;;;;;;;15.07;45.88;99606.78;5097035;28;20401;-78
2023/04/12 06:29:56;;;;;;;2.10;1.08;;;;;;;15.07;45.88;99597.88;5095439;28;20083;-77
2023/04/12 06:32:24;;;;;;;2.67;1.38;;;;;;;15.05;45.93;99583.72;5095111;28;20550;-77
2023/04/12 06:34:52;;;;;;;2.05;1.20;;;;;;;15.06;45.86;99613.16;5095002;28;20044;-76
2023/04/12 06:37:21;;;;;;;1.73;1.13;;;;;;;15.06;45.84;99596.19;5094675;28;20044;-76
2023/04/12 06:39:50;;;;;;;1.88;1.00;;;;;;;15.04;45.89;99598.97;5094444;28;20048;-78
2023/04/12 06:42:18;;;;;;;2.22;1.30;;;;;;;15.06;45.75;99601.56;5094651;28;20040;-73
2023/04/12 06:44:46;;;;;;;1.67;1.02;;;;;;;15.05;45.83;99600.69;5094540;28;20397;-76
2023/04/12 06:47:19;;;;;;;3.28;1.40;;;;;;;15.05;45.83;99594.47;5095438;28;20040;-75
2023/04/12 06:49:47;;;;;;;2.05;1.10;;;;;;;15.05;45.91;99603.38;5096060;28;20052;-78
2023/04/12 06:52:15;;;;;;;2.35;1.30;;;;;;;15.04;45.77;99603.50;5095254;28;20052;-79
2023/04/12 06:54:44;;;;;;;2.55;1.30;;;;;;;15.02;45.83;99595.59;5095258;28;20048;-79
2023/04/12 06:57:12;;;;;;;3.58;1.35;;;;;;;15.04;45.80;99598.13;5095080;28;20109;-79
2023/04/12 06:59:40;;;;;;;2.50;1.38;;;;;;;15.04;45.80;99592.78;5095009;28;20052;-76
2023/04/12 07:02:08;;;;;;;3.95;1.70;;;;;;;15.04;45.77;99600.81;5094203;28;20048;-76
2023/04/12 07:04:38;;;;;;;2.85;1.70;;;;;;;15.00;45.76;99597.56;5094279;28;20048;-75
2023/04/12 07:07:06;;;;;;;1.92;1.10;;;;;;;15.01;45.91;99585.00;5093991;28;20048;-71
2023/04/12 07:09:34;;;;;;;2.53;1.33;;;;;;;15.03;45.87;99593.75;5093996;28;20582;-74
2023/04/12 07:12:02;;;;;;;2.88;1.60;;;;;;;15.02;45.59;99600.13;5108218;28;20411;-74
2023/04/12 07:14:31;;;;;;;2.40;1.52;;;;;;;15.03;45.79;99596.44;5094423;28;20408;-74
2023/04/12 07:17:02;;;;;;;1.90;1.23;;;;;;;15.00;45.70;99596.72;5092086;28;20147;-75
2023/04/12 07:19:30;;;;;;;3.60;1.52;;;;;;;15.03;45.77;99596.44;5092908;28;20083;-75
2023/04/12 07:22:00;;;;;;;2.75;1.25;;;;;;;15.00;45.74;99585.97;5093515;28;20070;-76
2023/04/12 07:24:28;;;;;;;2.38;1.30;;;;;;;15.02;45.73;99587.53;5092590;28;20067;-75
2023/04/12 07:26:56;;;;;;;1.77;1.30;;;;;;;15.02;45.84;99594.75;5075697;28;20134;-75
2023/04/12 07:29:24;;;;;;;3.20;1.20;;;;;;;15.01;45.91;99582.31;5093160;28;20051;-75
2023/04/12 07:31:53;;;;;;;2.65;1.42;;;;;;;15.00;45.74;99586.81;5075552;28;20044;-74
2023/04/12 07:34:21;;;;;;;2.78;1.40;;;;;;;15.00;45.72;99583.28;5093119;28;20048;-76
2023/04/12 07:36:49;;;;;;;3.03;1.40;;;;;;;15.01;45.81;99596.59;5092936;28;20044;-76
2023/04/12 07:39:19;;;;;;;3.00;1.40;;;;;;;15.01;45.70;99587.69;5093339;28;20177;-75
2023/04/12 07:41:47;;;;;;;2.72;1.40;;;;;;;14.96;45.84;99589.91;5093503;28;20051;-75
2023/04/12 07:44:15;;;;;;;2.45;1.30;;;;;;;15.00;45.73;99596.72;5093664;28;20040;-77
2023/04/12 07:46:44;;;;;;;3.08;1.30;;;;;;;15.00;45.73;99599.41;5093281;28;20581;-75
2023/04/12 07:49:12;;;;;;;1.58;1.15;;;;;;;15.00;45.76;99592.19;5093057;28;20485;-75
2023/04/12 07:51:41;;;;;;;3.47;1.10;;;;;;;15.00;45.77;99597.56;5093292;28;20054;-76
2023/04/12 07:54:09;;;;;;;2.40;1.23;;;;;;;15.01;45.71;99598.41;5092710;28;20055;-76
2023/04/12 07:56:38;;;;;;;2.60;1.27;;;;;;;14.99;45.80;99595.03;5092706;28;20047;-76
2023/04/12 07:59:07;;;;;;;2.42;1.20;;;;;;;15.00;45.82;99585.97;5092592;28;20093;-75
2023/04/12 08:01:36;;;;;;;2.35;1.38;;;;;;;14.98;45.76;99587.97;5092749;28;20064;-75
2023/04/12 08:04:04;;;;;;;1.80;1.23;;;;;;;15.00;45.85;99602.09;5092971;28;20070;-77
2023/04/12 08:06:32;;;;;;;2.80;1.27;;;;;;;15.00;45.84;99608.31;5092903;28;20044;-75
2023/04/12 08:09:01;;;;;;;2.17;1.20;;;;;;;15.00;46.00;99596.72;5092870;28;20051;-75
2023/04/12 08:11:30;;;;;;;2.35;1.35;;;;;;;15.00;45.97;99602.94;5093301;28;20047;-75
2023/04/12 08:14:00;;;;;;;2.75;1.42;;;;;;;15.00;45.94;99597.56;5092378;28;20386;-75
2023/04/12 08:16:28;;;;;;;2.58;1.35;;;;;;;15.01;45.98;99606.47;5092867;28;20127;-77
2023/04/12 08:18:56;;;;;;;2.97;1.40;;;;;;;15.00;45.83;99600.25;5092728;28;20044;-74
2023/04/12 08:21:24;;;;;;;3.40;1.52;;;;;;;14.99;45.85;99601.25;5092452;28;20544;-76
2023/04/12 08:23:52;;;;;;;2.92;1.40;;;;;;;15.02;45.89;99611.72;5092781;28;20044;-76
2023/04/12 08:26:21;;;;;;;2.85;1.30;;;;;;;15.03;45.93;99608.03;5092630;28;20054;-76
2023/04/12 08:28:49;;;;;;;2.78;1.40;;;;;;;14.99;45.81;99603.94;5092907;28;20047;-75
2023/04/12 08:31:19;;;;;;;2.95;1.23;;;;;;;15.03;45.89;99607.19;5092653;28;20778;-75
2023/04/12 08:33:48;;;;;;;1.95;1.35;;;;;;;15.04;45.93;99608.88;5092163;28;20067;-74
2023/04/12 08:36:16;;;;;;;2.30;1.27;;;;;;;15.05;45.96;99594.47;5092496;28;20086;-75
2023/04/12 08:38:44;;;;;;;2.03;1.30;;;;;;;15.04;45.85;99590.06;5092436;28;20405;-75
2023/04/12 08:41:13;;;;;;;2.10;1.13;;;;;;;15.05;45.79;99600.69;5092150;28;20485;-75
2023/04/12 08:43:46;;;;;;;2.35;1.38;;;;;;;15.05;45.92;99594.47;5092620;28;20048;-76
2023/04/12 08:46:15;;;;;;;2.70;1.40;;;;;;;15.06;45.91;99591.66;5092461;28;20040;-76
2023/04/12 08:48:47;;;;;;;2.78;1.50;;;;;;;15.07;45.78;99588.00;5092295;28;20105;-76
2023/04/12 08:51:16;;;;;;;2.30;1.30;;;;;;;15.06;45.84;99590.81;5092170;28;20051;-78
2023/04/12 08:53:45;;;;;;;1.55;1.00;;;;;;;15.08;45.59;99588.84;5092065;28;20143;-76
2023/04/12 08:56:15;;;;;;;2.03;1.33;;;;;;;15.08;45.74;99580.78;5093204;28;20051;-76
2023/04/12 08:58:47;;;;;;;2.00;1.30;;;;;;;15.08;45.90;99578.94;5093192;28;20044;-75
2023/04/12 09:01:17;;;;;;;1.83;1.23;;;;;;;15.11;45.99;99584.03;5092558;28;20083;-75
2023/04/12 09:03:47;;;;;;;2.50;1.38;;;;;;;15.11;46.05;99583.19;5092049;28;20093;-75
2023/04/12 09:06:16;;;;;;;2.55;1.20;;;;;;;15.12;46.03;99580.34;5091965;28;20050;-75
2023/04/12 09:08:55;;;;;;;2.42;1.30;;;;;;;15.13;45.99;99581.19;5092182;28;20044;-75
2023/04/12 09:11:25;;;;;;;1.88;1.20;;;;;;;15.13;45.98;99578.50;5091937;28;20047;-75
2023/04/12 09:13:54;;;;;;;2.72;1.30;;;;;;;15.12;45.91;99566.94;5091807;28;20051;-75
2023/04/12 09:16:37;;;;;;;2.40;1.35;;;;;;;15.16;46.04;99578.25;5091600;28;20532;-75
2023/04/12 09:19:07;;;;;;;2.35;1.38;;;;;;;15.18;45.98;99576.28;5091838;28;20047;-76
2023/04/12 09:21:36;;;;;;;2.45;1.20;;;;;;;15.18;45.96;99578.97;5091911;28;20060;-75
2023/04/12 09:24:08;;;;;;;1.23;0.90;;;;;;;15.18;46.03;99573.59;5091644;28;20051;-75
2023/04/12 09:26:40;;;;;;;2.15;1.20;;;;;;;15.19;46.00;99569.91;5092191;28;20101;-76
2023/04/12 09:29:22;;;;;;;2.38;1.08;;;;;;;15.18;45.94;99560.16;5091195;28;20044;-75
2023/04/12 09:31:56;;;;;;;2.90;1.20;;;;;;;15.22;46.11;99553.50;5091658;28;20393;-76
2023/04/12 09:34:25;;;;;;;3.20;1.50;;;;;;;15.23;46.02;99555.22;5091481;28;20408;-75
2023/04/12 09:36:55;;;;;;;2.13;1.27;;;;;;;15.24;45.87;99546.16;5091417;28;20047;-75
2023/04/12 09:39:33;;;;;;;4.35;1.67;;;;;;;15.25;45.98;99542.50;5091422;28;20055;-74
2023/04/12 09:42:05;;;;;;;2.25;1.10;;;;;;;15.27;45.96;99558.50;5091607;28;20044;-75
2023/04/12 09:44:45;;;;;;;1.83;1.10;;;;;;;15.28;45.90;99544.91;5090798;28;20051;-75
2023/04/12 09:47:13;;;;;;;3.03;1.20;;;;;;;15.28;45.93;99539.53;5091528;28;20048;-76
2023/04/12 09:49:45;;;;;;;1.67;1.20;;;;;;;15.31;45.91;99535.72;5091423;28;20040;-75
2023/04/12 09:52:14;;;;;;;2.63;1.30;;;;;;;15.31;45.92;99543.78;5091304;28;20048;-75
2023/04/12 09:54:44;;;;;;;2.10;1.27;;;;;;;15.34;45.92;99535.41;5091232;28;20044;-75
2023/04/12 09:57:13;;;;;;;1.45;1.00;;;;;;;15.31;45.86;99525.81;5091276;28;20185;-75
2023/04/12 09:59:42;;;;;;;1.60;1.08;;;;;;;15.35;45.88;99527.25;5091295;28;20493;-75
2023/04/12 10:02:15;;;;;;;1.83;1.00;;;;;;;15.38;45.88;99526.97;5094494;28;20044;-74
2023/04/12 10:04:48;;;;;;;2.60;1.30;;;;;;;15.40;45.85;99529.50;5094864;28;20048;-76
2023/04/12 10:07:17;;;;;;;2.58;1.20;;;;;;;15.40;45.90;99519.59;5094791;28;20048;-75
2023/04/12 10:09:47;;;;;;;2.50;1.25;;;;;;;15.44;45.85;99523.72;5095625;28;20044;-76
2023/04/12 10:12:16;;;;;;;1.52;1.15;;;;;;;15.45;45.69;99527.25;5094998;28;20055;-75
2023/04/12 10:14:46;;;;;;;3.03;1.35;;;;;;;15.49;45.76;99522.44;5094784;28;20139;-73
2023/04/12 10:17:14;;;;;;;2.00;1.20;;;;;;;15.51;45.83;99529.34;5094762;28;20086;-75
2023/04/12 10:19:46;;;;;;;2.35;1.27;;;;;;;15.52;45.70;99523.00;5095011;28;20455;-77
2023/04/12 10:22:17;;;;;;;3.00;1.38;;;;;;;15.55;45.69;99521.88;5094785;28;20078;-76
2023/04/12 10:24:45;;;;;;;2.55;1.33;;;;;;;15.59;45.72;99523.28;5094639;28;20047;-75
2023/04/12 10:27:14;;;;;;;2.58;1.15;;;;;;;15.60;45.80;99511.53;5094561;28;20048;-75
2023/04/12 10:29:42;;;;;;;2.53;1.10;;;;;;;15.64;45.75;99523.75;5094506;28;20055;-75
2023/04/12 10:32:28;;;;;;;2.78;1.30;;;;;;;15.69;45.88;99524.16;5094473;28;20055;-75
2023/04/12 10:34:59;;;;;;;2.40;1.20;;;;;;;15.72;45.94;99529.25;5094372;28;20087;-74
2023/04/12 10:37:58;;;;;;;1.73;1.00;;;;;;;15.75;46.02;99526.28;5094382;28;20075;-75
2023/04/12 10:40:26;;;;;;;3.25;1.30;;;;;;;15.79;45.97;99519.63;5094378;28;20074;-74
2023/04/12 10:43:26;;;;;;;2.38;1.20;;;;;;;15.84;46.05;99512.00;5094605;28;20048;-75
2023/04/12 10:45:55;;;;;;;2.60;1.25;;;;;;;15.89;46.03;99504.31;5094340;28;20056;-73
2023/04/12 10:48:30;;;;;;;1.58;1.00;;;;;;;15.92;46.03;99505.88;5094091;28;20074;-74
2023/04/12 10:51:23;;;;;;;3.25;1.30;;;;;;;15.97;45.98;99507.13;5094081;28;20140;-73
2023/04/12 10:53:52;;;;;;;2.87;1.17;;;;;;;16.00;46.00;99516.75;5094075;28;20044;-76
2023/04/12 10:56:44;;;;;;;1.83;1.10;;;;;;;16.06;46.00;99510.81;5094014;28;20044;-75
2023/04/12 10:59:13;;;;;;;1.83;1.25;;;;;;;16.10;45.76;99506.81;5074271;28;20113;-74
2023/04/12 11:02:02;;;;;;;1.95;1.02;;;;;;;16.16;45.88;99510.78;5094085;28;20093;-73
2023/04/12 11:04:30;;;;;;;2.42;1.30;;;;;;;16.20;45.83;99499.56;5094019;28;20377;-74
2023/04/12 11:07:03;;;;;;;1.65;1.00;;;;;;;16.27;45.81;99499.84;5093787;28;20047;-73
2023/04/12 11:09:39;;;;;;;1.10;0.90;;;;;;;16.31;45.85;99498.56;5093899;28;20461;-75
2023/04/12 11:12:13;;;;;;;1.48;0.90;;;;;;;16.36;45.79;99496.28;5092967;28;20139;-77
2023/04/12 11:14:44;;;;;;;;;;;;;;;16.40;45.71;99500.34;5094377;28;20101;-74
2023/04/12 11:17:23;;;;;;;1.40;0.85;;;;;;;16.46;45.75;99491.69;5093921;28;20048;-75
2023/04/12 11:19:58;;;;;;;2.10;1.10;;;;;;;16.50;45.69;99493.09;5093588;28;20451;-75
2023/04/12 11:22:29;;;;;;;1.75;0.98;;;;;;;16.57;45.71;99493.34;5093583;28;21114;-76
2023/04/12 11:24:59;;;;;;;2.55;1.10;;;;;;;16.61;45.63;99492.06;5093610;28;20125;-74
2023/04/12 11:27:29;;;;;;;2.55;1.02;;;;;;;16.66;45.66;99488.91;5093566;28;20047;-75
2023/04/12 11:30:00;;;;;;;2.67;1.10;;;;;;;16.72;45.45;99485.66;5093186;28;20408;-75
2023/04/12 11:32:30;;;;;;;2.88;1.17;;;;;;;16.75;45.42;99477.28;5093360;28;20093;-74
2023/04/12 11:34:58;;;;;;;2.03;1.00;;;;;;;16.82;45.36;99478.38;5093366;28;20052;-75
2023/04/12 11:37:30;;;;;;;1.98;1.00;;;;;;;16.88;45.44;99483.13;5093677;28;20055;-75
2023/04/12 11:39:59;;;;;;;2.28;1.08;;;;;;;16.93;45.31;99474.63;5093350;28;20044;-73
2023/04/12 11:42:29;;;;;;;1.33;0.98;;;;;;;16.98;45.24;99461.53;5093122;28;20046;-74
2023/04/12 11:44:59;;;;;;;1.85;0.98;;;;;;;17.04;45.35;99469.00;5093944;28;20094;-74
2023/04/12 11:47:43;;;;;;;1.48;0.95;;;;;;;17.09;45.16;99462.19;5093847;28;20378;-74
2023/04/12 11:50:12;;;;;;;1.55;1.00;;;;;;;17.12;45.18;99453.78;5093082;28;20048;-75